Archival Weather

Davison Aaf

Fort Belvoir, Virginia (KDAA)

Report from: Thursday, December 7, 2023 2:55 AM EST
Current time: Wednesday, April 24, 2024 3:40 PM EDT

Current weather – Weather history – Daily summaries
Weather forecast

Temperature-3.2°C (26.2°F)
Dew point-6.0°C (21.2°F)
Winds Calm
Visibility10 mi. (16.1 km)
Clouds Sky clear
Altimeter30.13 in.Hg (1020 mB)
Relative humidity81 %
Density altitude-2,433 ft. (-741 m)
Sea-level pressure102.1 kPa (1021 mB, 30.14 in.Hg)
Remarks Fully automated report
System requires maintenance
Automated weather observing station with precipitation discriminator
Flight conditions Visual Meteorological Conditions
Raw dataKDAA 070755Z AUTO 00000KT 10SM CLR M03/M06 A3013 RMK AO2 SLP207 T10321060 $
An error has occurred. This application may no longer respond until reloaded. Reload 🗙